createdAt,value
2019-02-27T00:01:53.657Z,6.26
2019-02-27T00:06:55.602Z,6.19
2019-02-27T00:11:57.192Z,6.08
2019-02-27T00:16:58.881Z,6.01
2019-02-27T00:22:00.485Z,5.94
2019-02-27T00:27:02.078Z,5.88
2019-02-27T00:32:04.029Z,5.84
2019-02-27T00:37:05.598Z,5.78
2019-02-27T00:42:07.186Z,5.74
2019-02-27T00:47:08.808Z,5.69
2019-02-27T00:52:10.799Z,5.62
2019-02-27T00:57:12.495Z,5.56
2019-02-27T01:02:14.383Z,5.51
2019-02-27T01:07:20.212Z,5.41
2019-02-27T01:12:19.867Z,5.27
2019-02-27T01:17:23.855Z,5.20
2019-02-27T01:22:24.939Z,5.09
2019-02-27T01:27:26.469Z,5.00
2019-02-27T01:32:28.892Z,4.96
2019-02-27T01:37:32.342Z,4.97
2019-02-27T01:42:34.202Z,5.05
2019-02-27T01:47:36.539Z,5.16
2019-02-27T01:52:38.305Z,5.14
2019-02-27T01:57:39.891Z,5.12
2019-02-27T02:02:41.459Z,5.08
2019-02-27T02:07:45.527Z,5.07
2019-02-27T02:12:53.384Z,5.08
2019-02-27T02:18:43.171Z,5.05
2019-02-27T02:24:21.685Z,4.96
2019-02-27T02:29:52.995Z,4.90
2019-02-27T02:35:32.384Z,4.78
2019-02-27T02:40:56.947Z,4.70
2019-02-27T02:46:13.221Z,4.65
2019-02-27T02:51:32.055Z,4.58
2019-02-27T02:56:39.068Z,4.52
2019-02-27T03:01:51.908Z,4.49
2019-02-27T03:07:44.496Z,4.44
2019-02-27T03:13:20.323Z,4.37
2019-02-27T03:19:18.965Z,4.31
2019-02-27T03:25:14.918Z,4.22
2019-02-27T03:30:52.078Z,4.14
2019-02-27T03:36:16.350Z,4.09
2019-02-27T03:41:58.513Z,4.03
2019-02-27T03:47:16.729Z,3.93
2019-02-27T03:52:56.207Z,3.88
2019-02-27T03:58:38.463Z,3.87
2019-02-27T04:04:13.193Z,3.86
2019-02-27T04:09:18.532Z,3.85
2019-02-27T04:14:40.081Z,3.79
2019-02-27T04:19:40.640Z,3.71
2019-02-27T04:24:42.435Z,3.69
2019-02-27T04:29:44.080Z,3.67
2019-02-27T04:34:45.633Z,3.68
2019-02-27T04:39:47.176Z,3.68
2019-02-27T04:44:48.754Z,3.65
2019-02-27T04:49:50.323Z,3.58
2019-02-27T04:54:52.109Z,3.51
2019-02-27T04:59:53.694Z,3.44
2019-02-27T05:04:55.724Z,3.38
2019-02-27T05:09:57.687Z,3.33
2019-02-27T05:15:00.944Z,3.35
2019-02-27T05:20:03.091Z,3.33
2019-02-27T05:25:04.780Z,3.33
2019-02-27T05:30:06.692Z,3.33
2019-02-27T05:35:08.288Z,3.27
2019-02-27T05:40:10.307Z,3.24
2019-02-27T05:45:11.887Z,3.17
2019-02-27T05:50:13.796Z,3.11
2019-02-27T05:55:15.380Z,3.09
2019-02-27T06:00:17.030Z,3.04
2019-02-27T06:05:18.801Z,3.04
2019-02-27T06:10:21.137Z,3.02
2019-02-27T06:15:26.045Z,3.00
2019-02-27T06:20:27.602Z,2.98
2019-02-27T06:25:29.395Z,2.98
2019-02-27T06:30:31.405Z,2.95
2019-02-27T06:35:36.577Z,2.92
2019-02-27T06:40:42.120Z,2.90
2019-02-27T06:45:45.482Z,2.88
2019-02-27T06:50:45.261Z,2.92
2019-02-27T06:55:46.994Z,3.04
2019-02-27T07:00:48.953Z,2.93
2019-02-27T07:05:50.562Z,3.02
2019-02-27T07:10:52.129Z,3.10
2019-02-27T07:15:55.579Z,3.17
2019-02-27T07:20:58.424Z,3.23
2019-02-27T07:26:00.891Z,3.29
2019-02-27T07:31:02.538Z,3.37
2019-02-27T07:36:04.602Z,3.42
2019-02-27T07:41:06.224Z,3.46
2019-02-27T07:46:07.832Z,3.54
2019-02-27T07:51:09.426Z,3.73
2019-02-27T07:56:11.485Z,3.87
2019-02-27T08:01:13.455Z,4.01
2019-02-27T08:06:15.271Z,4.28
2019-02-27T08:11:16.842Z,4.53
2019-02-27T08:16:18.828Z,4.70
2019-02-27T08:21:20.426Z,4.82
2019-02-27T08:26:22.454Z,5.02
2019-02-27T08:31:27.890Z,5.24
2019-02-27T08:36:28.014Z,5.40
2019-02-27T08:41:31.465Z,5.54
2019-02-27T08:46:34.021Z,5.72
2019-02-27T08:51:39.788Z,5.89
2019-02-27T08:56:40.787Z,6.08
2019-02-27T09:01:42.485Z,6.31
2019-02-27T09:06:44.255Z,6.70
2019-02-27T09:11:45.830Z,7.23
2019-02-27T09:16:47.453Z,7.75
2019-02-27T09:21:49.062Z,8.40
2019-02-27T09:26:51.034Z,9.07
2019-02-27T09:31:52.699Z,9.65
2019-02-27T09:36:54.368Z,10.22
2019-02-27T09:41:55.947Z,10.78
2019-02-27T09:46:57.485Z,11.23
2019-02-27T09:51:59.086Z,11.69
2019-02-27T09:57:02.251Z,12.14
2019-02-27T10:02:06.362Z,12.58
2019-02-27T10:07:08.628Z,12.86
2019-02-27T10:12:11.311Z,13.13
2019-02-27T10:17:12.967Z,13.51
2019-02-27T10:22:17.889Z,13.99
2019-02-27T10:27:18.096Z,14.40
2019-02-27T10:32:20.061Z,14.72
2019-02-27T10:37:21.800Z,15.19
2019-02-27T10:42:23.433Z,15.41
2019-02-27T10:47:25.244Z,15.73
2019-02-27T10:52:27.206Z,15.95
2019-02-27T10:57:32.538Z,16.23
2019-02-27T11:02:32.679Z,16.66
2019-02-27T11:07:34.252Z,16.78
2019-02-27T11:12:35.915Z,17.03
2019-02-27T11:17:37.632Z,17.15
2019-02-27T11:22:39.207Z,17.17
2019-02-27T11:27:40.822Z,17.21
2019-02-27T11:32:42.405Z,17.04
2019-02-27T11:37:46.630Z,17.06
2019-02-27T11:42:47.517Z,17.14
2019-02-27T11:47:49.696Z,17.37
2019-02-27T11:52:51.393Z,17.42
2019-02-27T11:57:53.007Z,17.46
2019-02-27T12:02:54.994Z,17.64
2019-02-27T12:07:56.607Z,17.75
2019-02-27T12:13:00.727Z,17.86
2019-02-27T12:18:02.094Z,18.06
2019-02-27T12:23:03.869Z,18.15
2019-02-27T12:28:05.514Z,18.19
2019-02-27T12:33:07.122Z,18.31
2019-02-27T12:38:08.686Z,18.37
2019-02-27T12:43:10.935Z,18.59
2019-02-27T12:48:13.350Z,18.72
2019-02-27T12:53:15.001Z,18.77
2019-02-27T12:58:17.053Z,18.89
2019-02-27T13:03:18.694Z,18.84
2019-02-27T13:08:20.289Z,18.98
2019-02-27T13:13:23.277Z,19.08
2019-02-27T13:18:25.455Z,19.21
2019-02-27T13:23:27.032Z,19.30
2019-02-27T13:28:28.588Z,19.40
2019-02-27T13:33:30.131Z,19.43
2019-02-27T13:38:31.725Z,19.51
2019-02-27T13:43:33.305Z,19.66
2019-02-27T13:48:37.365Z,19.80
2019-02-27T13:53:38.353Z,19.93
2019-02-27T13:58:39.987Z,20.08
2019-02-27T14:03:41.589Z,20.15
2019-02-27T14:08:43.852Z,20.18
2019-02-27T14:13:45.580Z,20.28
2019-02-27T14:18:49.790Z,20.27
2019-02-27T14:23:50.708Z,20.27
2019-02-27T14:28:55.120Z,20.28
2019-02-27T14:33:56.157Z,20.44
2019-02-27T14:38:58.145Z,20.42
2019-02-27T14:44:02.871Z,20.54
2019-02-27T14:49:04.491Z,20.56
2019-02-27T14:54:06.107Z,20.71
2019-02-27T14:59:07.953Z,20.72
2019-02-27T15:04:09.586Z,20.59
2019-02-27T15:09:11.188Z,20.53
2019-02-27T15:14:12.846Z,20.44
2019-02-27T15:19:14.462Z,20.55
2019-02-27T15:24:16.127Z,20.59
2019-02-27T15:29:17.723Z,20.42
2019-02-27T15:34:19.340Z,20.39
2019-02-27T15:39:21.335Z,20.47
2019-02-27T15:44:22.898Z,20.38
2019-02-27T15:49:24.473Z,20.09
2019-02-27T15:54:26.090Z,19.98
2019-02-27T16:04:44.435Z,19.83
2019-02-27T16:09:46.383Z,19.62
2019-02-27T16:14:48.358Z,19.51
2019-02-27T16:19:50.447Z,19.22
2019-02-27T16:24:52.153Z,19.04
2019-02-27T16:29:54.107Z,18.88
2019-02-27T16:34:57.303Z,18.68
2019-02-27T16:39:59.048Z,18.51
2019-02-27T16:45:00.808Z,18.15
2019-02-27T16:50:02.354Z,17.90
2019-02-27T16:55:04.648Z,17.70
2019-02-27T17:00:07.088Z,17.35
2019-02-27T17:05:09.517Z,17.11
2019-02-27T17:10:14.966Z,16.85
2019-02-27T17:15:17.850Z,16.57
2019-02-27T17:20:19.574Z,16.22
2019-02-27T17:25:21.161Z,15.87
2019-02-27T17:30:27.661Z,15.67
2019-02-27T17:35:29.192Z,15.43
2019-02-27T17:40:30.747Z,15.25
2019-02-27T17:45:32.406Z,15.06
2019-02-27T17:50:33.933Z,14.88
2019-02-27T17:55:38.231Z,14.68
2019-02-27T18:00:39.249Z,14.46
2019-02-27T18:05:41.189Z,14.25
2019-02-27T18:10:42.927Z,14.08
2019-02-27T18:15:44.729Z,13.88
2019-02-27T18:20:46.976Z,13.70
2019-02-27T18:25:48.929Z,13.45
2019-02-27T18:30:53.209Z,13.20
2019-02-27T18:35:54.596Z,12.93
2019-02-27T18:40:56.628Z,12.71
2019-02-27T18:45:58.972Z,12.57
2019-02-27T18:51:01.289Z,12.41
2019-02-27T18:56:03.479Z,12.23
2019-02-27T19:01:09.520Z,12.00
2019-02-27T19:06:12.015Z,11.97
2019-02-27T19:11:12.922Z,11.90
2019-02-27T19:16:17.455Z,11.82
2019-02-27T19:21:19.907Z,11.75
2019-02-27T19:26:22.226Z,11.59
2019-02-27T19:31:24.113Z,11.48
2019-02-27T19:36:30.519Z,11.41
2019-02-27T19:41:29.447Z,11.36
2019-02-27T19:46:31.482Z,11.35
2019-02-27T19:51:33.192Z,11.29
2019-02-27T19:56:35.506Z,11.22
2019-02-27T20:01:40.466Z,11.11
2019-02-27T20:06:41.915Z,11.01
2019-02-27T20:11:43.553Z,10.91
2019-02-27T20:16:45.155Z,10.85
2019-02-27T20:21:50.554Z,10.74
2019-02-27T20:26:54.685Z,10.65
2019-02-27T20:31:58.781Z,10.58
2019-02-27T20:37:03.305Z,10.53
2019-02-27T20:42:05.740Z,10.51
2019-02-27T20:47:07.589Z,10.43
2019-02-27T20:52:14.539Z,10.35
2019-02-27T20:57:12.823Z,10.28
2019-02-27T21:02:14.763Z,10.17
2019-02-27T21:07:22.262Z,9.98
2019-02-27T21:12:19.859Z,9.78
2019-02-27T21:17:22.375Z,9.70
2019-02-27T21:22:28.389Z,9.53
2019-02-27T21:27:32.934Z,9.40
2019-02-27T21:32:36.167Z,9.31
2019-02-27T21:37:37.850Z,9.19
2019-02-27T21:42:39.547Z,9.07
2019-02-27T21:47:41.271Z,8.98
2019-02-27T21:52:42.870Z,8.93
2019-02-27T21:57:44.561Z,8.86
2019-02-27T22:02:46.223Z,8.77
2019-02-27T22:07:47.904Z,8.64
2019-02-27T22:12:49.571Z,8.56
2019-02-27T22:17:51.180Z,8.46
2019-02-27T22:22:52.753Z,8.37
2019-02-27T22:27:54.398Z,8.30
2019-02-27T22:32:56.322Z,8.21
2019-02-27T22:37:57.943Z,8.13
2019-02-27T22:42:59.517Z,8.06
2019-02-27T22:48:01.162Z,7.96
2019-02-27T22:53:02.824Z,7.86
2019-02-27T22:58:04.765Z,7.79
2019-02-27T23:03:06.407Z,7.72
2019-02-27T23:08:07.945Z,7.64
2019-02-27T23:13:12.438Z,7.58
2019-02-27T23:18:13.578Z,7.52
2019-02-27T23:23:15.156Z,7.45
2019-02-27T23:28:16.802Z,7.39
2019-02-27T23:33:18.356Z,7.31
2019-02-27T23:38:20.007Z,7.25
2019-02-27T23:43:22.208Z,7.19
2019-02-27T23:48:24.180Z,7.13
2019-02-27T23:53:27.140Z,7.05
2019-02-27T23:58:29.654Z,6.99
